Acorn Park, Oregon
Current Conditions -  °F | °C
As of 8:54 PM on Monday 20 Oct 2014 (Local Time) from KEUG Reporting Station
Broken Clouds Broken Clouds  
Wind Chill: 11°   Ceiling: 8500
Heat Index: 11°   Visibility: 10mi
Dew Point: 10°   Wind: 6mph
Humidity: 93%   Direction: 180°S
Pressure: 29.87"   Gusts: NA
Location:  44.0318°N, 123.235°W
Report Text: KEUG 210354Z 18005KT 10SM FEW040 SCT070 BKN085 BKN160 11/10 A2987 RMK AO2 SLP116 T01110100
Loading
Personal Weather Stations






























Interactive Weather Map
Tropical Storm Tracking
New forecast layout! Learn more

10-Day Weather Forecast

Advertisements
Track Severe Weather on mobile